Data for 04/28/2010

Time Sea-Level Adjusted Pressure Absolute Pressure Temperature Relative Humidity Dew Point   
(mb) (inHg) (mb) (inHg) (C) (F) (%) (C) (F)
00:05 998 29.47 827 24.42 7.4 45.4 88 5.6 42.2
00:10 998 29.47 827 24.42 7.5 45.6 86 5.4 41.8
00:15 998 29.47 827 24.42 7.9 46.1 80 4.7 40.4
00:20 998 29.47 827 24.42 8.1 46.5 80 4.8 40.7
00:25 998 29.47 827 24.42 8 46.5 80 4.7 40.5
00:30 998 29.47 827 24.42 8 46.3 82 5 41
00:35 998 29.47 827 24.42 7.6 45.7 83 4.9 40.8
00:40 998 29.47 827 24.42 7.5 45.4 83 4.8 40.7
00:45 997 29.44 827 24.42 7.3 45.1 84 4.8 40.6
00:50 997 29.44 827 24.42 7.1 44.8 84 4.6 40.3
00:55 997 29.44 827 24.42 7.2 45 83 4.5 40
01:00 998 29.47 827 24.42 7.4 45.3 83 4.6 40.3
01:05 998 29.47 827 24.42 7.5 45.4 81 4.5 40.1
01:10 998 29.47 827 24.42 7.4 45.3 82 4.5 40.1
01:15 998 29.47 827 24.42 7.6 45.6 81 4.5 40.2
01:20 998 29.47 827 24.42 7.7 45.8 81 4.5 40.2
01:25 998 29.47 827 24.42 7.6 45.8 81 4.6 40.3
01:30 998 29.47 827 24.42 7.6 45.7 81 4.5 40.1
01:35 998 29.47 827 24.42 7.6 45.8 82 4.8 40.6
01:40 998 29.47 827 24.42 7.6 45.7 83 4.9 40.8
01:45 998 29.47 827 24.42 7.6 45.6 83 4.9 40.9
01:50 998 29.47 827 24.42 7.6 45.6 82 4.7 40.5
01:55 998 29.47 827 24.42 7.5 45.4 83 4.7 40.5
02:00 997 29.44 827 24.42 7.2 45 83 4.5 40.2
02:05 997 29.44 827 24.42 7.1 44.8 86 4.9 40.8
02:10 997 29.44 827 24.42 6.8 44.2 89 5 41.1
02:15 997 29.44 827 24.42 6.6 43.8 89 5 40.9
02:20 997 29.44 827 24.42 6.5 43.7 89 4.9 40.8
02:25 997 29.44 827 24.42 6.5 43.7 89 4.8 40.6
02:30 997 29.44 826 24.39 6.5 43.7 88 4.6 40.3
02:35 997 29.44 826 24.39 6.5 43.6 88 4.7 40.4
02:40 997 29.44 826 24.39 6.5 43.6 87 4.4 40
02:45 996 29.41 826 24.39 6.5 43.7 87 4.5 40
02:50 996 29.41 825 24.36 6.4 43.5 88 4.5 40.1
02:55 996 29.41 825 24.36 6.4 43.4 89 4.7 40.4
03:00 996 29.41 826 24.39 6.3 43.3 90 4.8 40.7
03:05 997 29.44 826 24.39 6.1 43 90 4.7 40.4
03:10 997 29.44 826 24.39 6 42.9 90 4.6 40.2
03:15 997 29.44 826 24.39 5.9 42.7 90 4.5 40.1
03:20 997 29.44 826 24.39 5.9 42.7 89 4.3 39.7
03:25 996 29.41 826 24.39 6 42.8 87 4 39.2
03:30 996 29.41 825 24.36 6.1 43 87 4 39.3
03:35 996 29.41 825 24.36 6.2 43.1 86 4 39.3
03:40 996 29.41 825 24.36 6.1 43 87 4.1 39.3
03:45 996 29.41 825 24.36 6.1 42.9 87 4.1 39.4
03:50 996 29.41 825 24.36 5.9 42.7 88 4.1 39.4
03:55 995 29.38 825 24.36 5.8 42.4 88 3.9 39
04:00 995 29.38 825 24.36 5.7 42.3 86 3.6 38.4
04:05 996 29.41 825 24.36 5.9 42.5 84 3.4 38
04:10 996 29.41 825 24.36 6.1 43 83 3.4 38
04:15 996 29.41 825 24.36 6.2 43.2 84 3.7 38.7
04:20 997 29.44 826 24.39 6 42.9 76 2.1 35.8
04:25 997 29.44 826 24.39 5.3 41.5 79 2 35.7
04:30 997 29.44 826 24.39 4.6 40.3 83 1.9 35.5
04:35 997 29.44 826 24.39 4.4 39.9 84 1.9 35.4
04:40 997 29.44 826 24.39 4.2 39.6 84 1.9 35.3
04:45 996 29.41 826 24.39 4.1 39.4 86 1.9 35.4
04:50 996 29.41 825 24.36 3.8 38.8 87 1.9 35.4
04:55 996 29.41 825 24.36 3.7 38.6 88 1.8 35.3
05:00 996 29.41 826 24.39 3.5 38.3 89 1.9 35.3
05:05 996 29.41 826 24.39 3.4 38.2 89 1.8 35.2
05:10 997 29.44 826 24.39 3.4 38.1 89 1.7 35
05:15 997 29.44 826 24.39 3.4 38.2 88 1.6 34.9
05:20 997 29.44 826 24.39 3.5 38.4 87 1.6 34.9
05:25 997 29.44 826 24.39 4 39.2 85 1.7 35
05:30 997 29.44 827 24.42 4.1 39.4 79 0.8 33.5
05:35 997 29.44 826 24.39 3.5 38.4 82 0.7 33.3
05:40 997 29.44 827 24.42 3.3 37.9 81 0.4 32.7
05:45 998 29.47 827 24.42 3.4 38.1 75 -0.5 31
05:50 998 29.47 827 24.42 3.4 38.1 82 0.5 33
05:55 998 29.47 827 24.42 2.7 36.9 84 0.2 32.3
06:00 998 29.47 827 24.42 2.8 37.1 81 -0.2 31.7
06:05 997 29.44 827 24.42 2.8 37.1 79 -0.5 31
06:10 997 29.44 826 24.39 3.1 37.5 78 -0.4 31.3
06:15 997 29.44 826 24.39 3.1 37.6 78 -0.4 31.3
06:20 997 29.44 826 24.39 3.1 37.6 77 -0.5 31.1
06:25 997 29.44 826 24.39 3.1 37.5 78 -0.5 31.1
06:30 996 29.41 826 24.39 3.1 37.5 77 -0.7 30.8
06:35 997 29.44 826 24.39 2.9 37.1 78 -0.5 31
06:40 996 29.41 826 24.39 2.7 36.8 80 -0.5 31.1
06:45 996 29.41 825 24.36 2.5 36.5 80 -0.6 30.9
06:50 996 29.41 825 24.36 2.5 36.6 77 -1.1 30.1
06:55 996 29.41 825 24.36 2.9 37.2 75 -1 30.2
07:00 996 29.41 825 24.36 3.2 37.8 72 -1.3 29.7
07:05 996 29.41 825 24.36 3.7 38.7 69 -1.4 29.4
07:10 996 29.41 826 24.39 3.6 38.5 76 -0.3 31.5
07:15 997 29.44 826 24.39 2.4 36.4 80 -0.7 30.7
07:20 997 29.44 826 24.39 2.2 36 80 -0.9 30.3
07:25 997 29.44 826 24.39 2.1 35.8 83 -0.5 31.1
07:30 997 29.44 826 24.39 1.6 34.9 87 -0.4 31.4
07:35 997 29.44 826 24.39 1.4 34.5 85 -0.9 30.5
07:40 997 29.44 826 24.39 1.6 35 83 -0.9 30.4
07:45 997 29.44 826 24.39 1.8 35.3 84 -0.6 30.9
07:50 997 29.44 826 24.39 1.7 35.1 84 -0.6 30.9
07:55 997 29.44 826 24.39 1.6 34.9 84 -0.8 30.6
08:00 997 29.44 826 24.39 1.6 34.9 85 -0.6 30.9
08:05 997 29.44 826 24.39 1.4 34.6 86 -0.7 30.8
08:10 997 29.44 826 24.39 1.4 34.6 85 -0.8 30.5
08:15 997 29.44 826 24.39 1.6 34.8 82 -1.1 30
08:20 997 29.44 826 24.39 2 35.5 79 -1.3 29.6
08:25 997 29.44 826 24.39 2.1 35.8 82 -0.6 30.9
08:30 997 29.44 827 24.42 1.8 35.3 84 -0.5 31.1
08:35 998 29.47 827 24.42 1.7 35.1 83 -0.8 30.5
08:40 998 29.47 827 24.42 1.9 35.4 77 -1.7 28.9
08:45 998 29.47 827 24.42 2.5 36.5 72 -2 28.5
08:50 998 29.47 827 24.42 2.9 37.1 73 -1.5 29.3
08:55 998 29.47 827 24.42 2.9 37.3 72 -1.6 29.1
09:00 998 29.47 827 24.42 3 37.4 74 -1.2 29.8
09:05 998 29.47 827 24.42 3.1 37.6 72 -1.5 29.3
09:10 998 29.47 827 24.42 3.1 37.5 71 -1.6 29.1
09:15 998 29.47 827 24.42 3 37.4 68 -2.4 27.7
09:20 998 29.47 827 24.42 3 37.5 69 -2 28.4
09:25 998 29.47 827 24.42 3 37.4 67 -2.6 27.4
09:30 998 29.47 827 24.42 3 37.3 66 -2.7 27.1
09:35 998 29.47 827 24.42 3 37.4 67 -2.5 27.6
09:40 998 29.47 827 24.42 3 37.4 65 -2.9 26.8
09:45 998 29.47 827 24.42 3 37.3 73 -1.3 29.6
09:50 999 29.5 828 24.45 1.3 34.4 90 -0.1 31.8
09:55 999 29.5 828 24.45 0.4 32.7 93 -0.6 30.8
10:00 999 29.5 828 24.45 0.4 32.7 90 -1 30.2
10:05 999 29.5 828 24.45 0.5 32.9 88 -1.3 29.6
10:10 999 29.5 828 24.45 0.6 33.1 84 -1.8 28.8
10:15 999 29.5 828 24.45 0.9 33.7 82 -1.8 28.8
10:20 999 29.5 828 24.45 1.1 34 82 -1.7 29
10:25 999 29.5 828 24.45 1.2 34.1 82 -1.5 29.3
10:30 999 29.5 828 24.45 1 33.8 86 -1.1 30.1
10:35 999 29.5 828 24.45 0.9 33.6 87 -1 30.2
10:40 999 29.5 828 24.45 1 33.8 86 -1.1 30
10:45 999 29.5 828 24.45 1.1 33.9 86 -1 30.3
10:50 999 29.5 828 24.45 1.4 34.5 81 -1.5 29.3
10:55 999 29.5 828 24.45 1.8 35.3 78 -1.5 29.2
11:00 999 29.5 828 24.45 2.2 35.9 76 -1.7 29
11:05 999 29.5 828 24.45 2.5 36.4 74 -1.6 29
11:10 999 29.5 828 24.45 2.6 36.7 70 -2.2 28
11:15 999 29.5 828 24.45 2.8 37.1 70 -2 28.3
11:20 999 29.5 828 24.45 3 37.3 67 -2.5 27.4
11:25 999 29.5 828 24.45 3 37.3 70 -2 28.4
11:30 999 29.5 828 24.45 3.3 37.9 66 -2.5 27.5
11:35 999 29.5 828 24.45 3.4 38.1 63 -3 26.6
11:40 999 29.5 828 24.45 3.5 38.2 66 -2.4 27.7
11:45 999 29.5 828 24.45 3.5 38.2 65 -2.4 27.6
11:50 999 29.5 828 24.45 3.5 38.2 61 -3.3 26.1
11:55 999 29.5 828 24.45 3.5 38.3 61 -3.3 26
12:00 999 29.5 828 24.45 3.7 38.6 65 -2.2 28
12:05 999 29.5 828 24.45 3.8 38.9 61 -3 26.5
12:10 999 29.5 828 24.45 4.1 39.3 60 -3 26.7
12:15 999 29.5 828 24.45 4.1 39.3 58 -3.4 25.8
12:20 999 29.5 828 24.45 4 39.2 57 -3.7 25.3
12:25 999 29.5 828 24.45 4.2 39.6 55 -3.9 24.9
12:30 999 29.5 828 24.45 4.5 40.2 52 -4.5 24
12:35 999 29.5 828 24.45 4.8 40.7 52 -4.3 24.3
12:40 999 29.5 828 24.45 5.1 41.3 50 -4.4 24
12:45 999 29.5 828 24.45 5.6 42.1 51 -3.8 25.2
12:50 999 29.5 828 24.45 6.6 43.8 39 -6.4 20.5
12:55 999 29.5 828 24.45 6.5 43.6 37 -7.1 19.2
13:00 999 29.5 828 24.45 6.4 43.5 39 -6.7 20
13:05 999 29.5 828 24.45 5.9 42.5 42 -6 21.3
13:10 998 29.47 828 24.45 5.8 42.5 45 -5.1 22.7
13:15 998 29.47 828 24.45 5.8 42.5 46 -4.9 23.2
13:20 998 29.47 828 24.45 5.6 42 47 -5 23
13:25 998 29.47 828 24.45 5.6 42.2 45 -5.3 22.5
13:30 998 29.47 828 24.45 5.5 42 48 -4.7 23.5
13:35 999 29.5 828 24.45 4.9 40.8 54 -3.6 25.5
13:40 999 29.5 828 24.45 4.6 40.2 56 -3.4 25.9
13:45 999 29.5 828 24.45 4.4 40 56 -3.7 25.4
13:50 999 29.5 828 24.45 4.3 39.8 55 -3.9 24.9
13:55 999 29.5 828 24.45 5.4 41.7 48 -4.8 23.3
14:00 999 29.5 828 24.45 5.9 42.6 46 -5 23.1
14:05 999 29.5 828 24.45 6.2 43.1 44 -5.1 22.8
14:10 999 29.5 828 24.45 5.5 41.9 46 -5.2 22.7
14:15 999 29.5 828 24.45 5.3 41.6 45 -5.6 22
14:20 999 29.5 828 24.45 5.8 42.5 41 -6.3 20.6
14:25 999 29.5 828 24.45 6 42.9 40 -6.7 19.9
14:30 999 29.5 828 24.45 6.1 42.9 40 -6.5 20.2
14:35 999 29.5 828 24.45 6.5 43.7 34 -8.5 16.8
14:40 999 29.5 828 24.45 7 44.6 35 -7.3 18.9
14:45 999 29.5 828 24.45 7.1 44.8 38 -6.4 20.6
14:50 999 29.5 828 24.45 6.6 43.9 36 -7.4 18.6
14:55 999 29.5 828 24.45 6.7 44 35 -7.9 17.8
15:00 999 29.5 828 24.45 6.6 43.8 34 -8.2 17.2
15:05 999 29.5 828 24.45 6.6 43.9 34 -8.2 17.2
15:10 999 29.5 828 24.45 6.7 44.1 34 -8 17.5
15:15 999 29.5 828 24.45 6.9 44.4 33 -8.3 17.1
15:20 999 29.5 828 24.45 6.9 44.4 32 -8.8 16.1
15:25 999 29.5 829 24.48 6.8 44.3 30 -9.5 14.9
15:30 999 29.5 829 24.48 6.4 43.6 33 -8.8 16.2
15:35 999 29.5 829 24.48 6.4 43.5 32 -9.1 15.6
15:40 999 29.5 829 24.48 6.6 43.8 33 -8.4 16.8
15:45 999 29.5 829 24.48 6.7 44 32 -8.8 16.1
15:50 999 29.5 829 24.48 6.5 43.7 30 -9.8 14.4
15:55 999 29.5 829 24.48 6.6 43.8 31 -9.4 15.1
16:00 1000 29.53 829 24.48 6.6 43.8 29 -10.3 13.4
16:05 1000 29.53 829 24.48 6.4 43.6 30 -9.8 14.3
16:10 1000 29.53 829 24.48 6.4 43.6 31 -9.6 14.8
16:15 1000 29.53 829 24.48 6.3 43.4 32 -9 15.8
16:20 1000 29.53 829 24.48 6.4 43.5 29 -10.6 12.9
16:25 1000 29.53 829 24.48 6.3 43.4 31 -9.7 14.6
16:30 1000 29.53 829 24.48 6.4 43.4 30 -9.9 14.2
16:35 1000 29.53 829 24.48 6.3 43.3 29 -10.5 13
16:40 1000 29.53 829 24.48 6.3 43.3 30 -10.3 13.5
16:45 1000 29.53 829 24.48 6.3 43.3 27 -11.2 11.8
16:50 1000 29.53 829 24.48 6.2 43.2 29 -10.7 12.8
16:55 1000 29.53 829 24.48 6.4 43.5 28 -10.8 12.6
17:00 1000 29.53 829 24.48 6.5 43.7 29 -10.4 13.3
17:05 1000 29.53 829 24.48 6.6 43.8 26 -11.6 11.1
17:10 1000 29.53 829 24.48 6.5 43.6 26 -11.5 11.3
17:15 1000 29.53 829 24.48 6.4 43.6 26 -11.5 11.3
17:20 1000 29.53 829 24.48 6.5 43.6 28 -10.9 12.4
17:25 1000 29.53 829 24.48 6.4 43.5 27 -11.4 11.5
17:30 1000 29.53 829 24.48 6.3 43.4 27 -11.3 11.6
17:35 1000 29.53 829 24.48 6.3 43.4 27 -11.3 11.6
17:40 1000 29.53 829 24.48 6.4 43.4 28 -10.8 12.5
17:45 1000 29.53 829 24.48 6.3 43.4 29 -10.5 13.1
17:50 1000 29.53 829 24.48 6.4 43.5 28 -10.8 12.5
17:55 1000 29.53 829 24.48 6.4 43.6 27 -11.5 11.4
18:00 1000 29.53 829 24.48 6.4 43.5 26 -11.7 10.9
18:05 1000 29.53 829 24.48 6.3 43.3 27 -11.6 11.2
18:10 1000 29.53 829 24.48 6.2 43.1 27 -11.5 11.2
18:15 1000 29.53 829 24.48 6.2 43.1 27 -11.7 11
18:20 1000 29.53 829 24.48 6.2 43.1 27 -11.6 11.2
18:25 1000 29.53 829 24.48 6.1 43 28 -11.1 12.1
18:30 1000 29.53 829 24.48 6.2 43.1 28 -11.1 12.1
18:35 1000 29.53 829 24.48 6.1 43 27 -11.3 11.6
18:40 1000 29.53 829 24.48 6 42.9 28 -11.1 12.1
18:45 1000 29.53 829 24.48 6 42.8 29 -10.9 12.3
18:50 1000 29.53 829 24.48 5.9 42.7 28 -11.4 11.5
18:55 1000 29.53 829 24.48 5.9 42.6 29 -10.8 12.5
19:00 1000 29.53 829 24.48 5.9 42.6 30 -10.3 13.4
19:05 1000 29.53 829 24.48 5.9 42.5 31 -9.9 14.1
19:10 1000 29.53 829 24.48 5.8 42.5 31 -10 13.9
19:15 1000 29.53 829 24.48 5.7 42.3 30 -10.6 12.9
19:20 1000 29.53 829 24.48 5.6 42.1 29 -11.2 11.8
19:25 1000 29.53 829 24.48 5.6 42.1 29 -11.2 11.8
19:30 1000 29.53 829 24.48 5.6 42.1 29 -11.2 11.8
19:35 1000 29.53 829 24.48 5.6 42.1 30 -10.8 12.6
19:40 1000 29.53 829 24.48 5.6 42.1 28 -11.4 11.5
19:45 1000 29.53 829 24.48 5.5 41.8 27 -12.2 10.1
19:50 1000 29.53 829 24.48 5.3 41.6 27 -12.3 9.8
19:55 1000 29.53 829 24.48 5.4 41.7 26 -12.6 9.4
20:00 1000 29.53 829 24.48 5.4 41.7 29 -11.4 11.5
20:05 1000 29.53 829 24.48 5.3 41.5 30 -10.8 12.6
20:10 1000 29.53 829 24.48 5.1 41.2 29 -11.7 11
20:15 1000 29.53 829 24.48 5.1 41.1 28 -12 10.4
20:20 1000 29.53 829 24.48 4.9 40.8 30 -11.5 11.3
20:25 1000 29.53 829 24.48 4.8 40.7 29 -11.9 10.6
20:30 1000 29.53 829 24.48 4.9 40.8 29 -11.9 10.5
20:35 1000 29.53 829 24.48 5 41 27 -12.5 9.4
20:40 1000 29.53 829 24.48 5.1 41.2 28 -11.9 10.5
20:45 1000 29.53 829 24.48 5.1 41.1 30 -11.3 11.7
20:50 1000 29.53 829 24.48 5 41 30 -11 12.2
20:55 1000 29.53 829 24.48 4.9 40.7 33 -10.1 13.8
21:00 1000 29.53 829 24.48 4.7 40.5 31 -10.9 12.3
21:05 1000 29.53 829 24.48 4.7 40.5 30 -11.5 11.3
21:10 1000 29.53 829 24.48 4.8 40.6 29 -11.6 11.1
21:15 1000 29.53 829 24.48 4.8 40.6 30 -11.6 11.2
21:20 1000 29.53 829 24.48 4.8 40.6 29 -11.6 11.1
21:25 1000 29.53 830 24.51 4.8 40.6 31 -11.1 12.1
21:30 1000 29.53 830 24.51 4.7 40.4 31 -11.2 11.8
21:35 1000 29.53 830 24.51 4.6 40.2 32 -10.6 12.9
21:40 1000 29.53 830 24.51 4.4 40 33 -10.4 13.3
21:45 1000 29.53 829 24.48 4.3 39.8 32 -11.1 12
21:50 1000 29.53 829 24.48 4.5 40.1 30 -11.4 11.4
21:55 1000 29.53 829 24.48 4.6 40.3 31 -11 12.3
22:00 1000 29.53 829 24.48 4.6 40.3 30 -11.6 11.1
22:05 1000 29.53 829 24.48 4.7 40.4 30 -11.5 11.3
22:10 1000 29.53 829 24.48 4.7 40.5 31 -11.2 11.9
22:15 1000 29.53 829 24.48 4.7 40.4 30 -11.3 11.6
22:20 1000 29.53 829 24.48 4.7 40.4 31 -10.9 12.4
22:25 1000 29.53 829 24.48 4.7 40.4 31 -11.2 11.9
22:30 1000 29.53 829 24.48 4.6 40.4 33 -10.1 13.8
22:35 1000 29.53 829 24.48 4.4 40 34 -9.9 14.1
22:40 1000 29.53 829 24.48 4.3 39.8 33 -10.7 12.7
22:45 1000 29.53 829 24.48 4.3 39.7 35 -9.7 14.6
22:50 1000 29.53 829 24.48 3.9 39.1 36 -9.9 14.2
22:55 1000 29.53 829 24.48 3.9 39 35 -10.1 13.9
23:00 1000 29.53 829 24.48 3.9 39 35 -10.3 13.5
23:05 1000 29.53 829 24.48 3.9 39 33 -10.9 12.3
23:10 1000 29.53 829 24.48 3.9 39.1 34 -10.5 13.2
23:15 1000 29.53 829 24.48 3.9 39 34 -10.7 12.7
23:20 1000 29.53 829 24.48 3.9 39 35 -10.3 13.4
23:25 1000 29.53 829 24.48 3.8 38.9 35 -10.2 13.6
23:30 1000 29.53 829 24.48 3.7 38.6 37 -9.8 14.3
23:35 1000 29.53 829 24.48 3.6 38.5 38 -9.4 15.1
23:40 1000 29.53 829 24.48 3.6 38.4 37 -9.8 14.4
23:45 1000 29.53 829 24.48 3.6 38.4 39 -9.1 15.6
23:50 1000 29.53 829 24.48 3.4 38.1 39 -9.2 15.5
23:55 1000 29.53 829 24.48 3.3 38 38 -9.5 14.9
24:00 1000 29.53 829 24.48 3.4 38 39 -9.5 15